createdAt,value
2024-03-21T00:00:21.202Z,4.28
2024-03-21T00:01:23.456Z,4.28
2024-03-21T00:02:25.726Z,4.28
2024-03-21T00:03:27.818Z,4.29
2024-03-21T00:04:30.095Z,4.29
2024-03-21T00:05:32.456Z,4.31
2024-03-21T00:06:34.951Z,4.31
2024-03-21T00:07:37.275Z,4.33
2024-03-21T00:08:39.667Z,4.33
2024-03-21T00:09:43.183Z,4.34
2024-03-21T00:10:45.599Z,4.35
2024-03-21T00:11:48.047Z,4.35
2024-03-21T00:12:50.926Z,4.35
2024-03-21T00:13:53.183Z,4.34
2024-03-21T00:14:55.499Z,4.33
2024-03-21T00:15:57.736Z,4.33
2024-03-21T00:17:00.377Z,4.32
2024-03-21T00:18:02.954Z,4.33
2024-03-21T00:19:04.973Z,4.33
2024-03-21T00:20:08.453Z,4.34
2024-03-21T00:21:10.788Z,4.35
2024-03-21T00:22:13.001Z,4.37
2024-03-21T00:23:15.223Z,4.38
2024-03-21T00:24:17.899Z,4.39
2024-03-21T00:25:22.204Z,4.41
2024-03-21T00:26:24.649Z,4.43
2024-03-21T00:27:26.813Z,4.45
2024-03-21T00:28:29.542Z,4.46
2024-03-21T00:29:32.608Z,4.47
2024-03-21T00:30:34.998Z,4.49
2024-03-21T00:31:37.450Z,4.49
2024-03-21T00:32:39.761Z,4.50
2024-03-21T00:33:43.298Z,4.52
2024-03-21T00:34:45.519Z,4.52
2024-03-21T00:35:47.784Z,4.53
2024-03-21T00:36:50.159Z,4.54
2024-03-21T00:37:52.391Z,4.54
2024-03-21T00:38:54.836Z,4.54
2024-03-21T00:39:57.023Z,4.54
2024-03-21T00:40:59.416Z,4.54
2024-03-21T00:42:01.746Z,4.52
2024-03-21T00:43:04.061Z,4.53
2024-03-21T00:44:06.229Z,4.55
2024-03-21T00:45:09.142Z,4.54
2024-03-21T00:46:11.776Z,4.55
2024-03-21T00:47:14.042Z,4.55
2024-03-21T00:48:16.329Z,4.54
2024-03-21T00:49:18.548Z,4.57
2024-03-21T00:50:21.097Z,4.57
2024-03-21T00:51:23.356Z,4.56
2024-03-21T00:52:25.722Z,4.56
2024-03-21T00:53:28.031Z,4.57
2024-03-21T00:54:30.213Z,4.57
2024-03-21T00:55:34.276Z,4.57
2024-03-21T00:56:36.639Z,4.58
2024-03-21T00:57:38.957Z,4.60
2024-03-21T00:58:41.047Z,4.62
2024-03-21T00:59:43.186Z,4.62
2024-03-21T01:00:45.687Z,4.64
2024-03-21T01:01:48.884Z,4.65
2024-03-21T01:02:51.416Z,4.66
2024-03-21T01:03:55.228Z,4.65
2024-03-21T01:04:57.545Z,4.65
2024-03-21T01:05:59.831Z,4.66
2024-03-21T01:07:02.257Z,4.67
2024-03-21T01:08:04.528Z,4.69
2024-03-21T01:09:08.020Z,4.70
2024-03-21T01:10:10.620Z,4.73
2024-03-21T01:11:13.133Z,4.73
2024-03-21T01:12:15.436Z,4.74
2024-03-21T01:13:19.080Z,4.74
2024-03-21T01:14:21.162Z,4.77
2024-03-21T01:15:24.022Z,4.79
2024-03-21T01:16:26.371Z,4.78
2024-03-21T01:17:28.769Z,4.80
2024-03-21T01:18:30.919Z,4.79
2024-03-21T01:19:33.144Z,4.77
2024-03-21T01:20:35.721Z,4.78
2024-03-21T01:21:37.874Z,4.76
2024-03-21T01:22:40.214Z,4.75
2024-03-21T01:23:42.460Z,4.75
2024-03-21T01:24:45.671Z,4.75
2024-03-21T01:25:47.953Z,4.75
2024-03-21T01:26:50.235Z,4.76
2024-03-21T01:28:05.976Z,4.75
2024-03-21T01:29:08.495Z,4.77
2024-03-21T01:30:12.305Z,4.78
2024-03-21T01:31:14.673Z,4.76
2024-03-21T01:32:17.017Z,4.76
2024-03-21T01:33:19.287Z,4.77
2024-03-21T01:34:21.354Z,4.76
2024-03-21T01:35:24.255Z,4.76
2024-03-21T01:36:26.618Z,4.76
2024-03-21T01:37:28.945Z,4.74
2024-03-21T01:38:31.224Z,4.75
2024-03-21T01:39:33.411Z,4.73
2024-03-21T01:40:35.878Z,4.71
2024-03-21T01:41:38.185Z,4.69
2024-03-21T01:42:40.445Z,4.68
2024-03-21T01:43:42.768Z,4.67
2024-03-21T01:45:02.041Z,4.67
2024-03-21T01:46:19.690Z,4.67
2024-03-21T01:47:22.093Z,4.67
2024-03-21T01:48:24.220Z,4.65
2024-03-21T01:49:26.504Z,4.63
2024-03-21T01:50:28.930Z,4.58
2024-03-21T01:51:31.350Z,4.56
2024-03-21T01:52:38.232Z,4.53
2024-03-21T01:53:41.826Z,4.50
2024-03-21T01:54:44.931Z,4.48
2024-03-21T01:55:47.199Z,4.44
2024-03-21T01:56:49.641Z,4.41
2024-03-21T01:57:51.866Z,4.37
2024-03-21T01:58:54.115Z,4.36
2024-03-21T01:59:56.383Z,4.33
2024-03-21T02:01:14.530Z,4.32
2024-03-21T02:02:16.811Z,4.31
2024-03-21T02:03:19.303Z,4.31
2024-03-21T02:04:21.449Z,4.29
2024-03-21T02:05:23.630Z,4.29
2024-03-21T02:06:28.416Z,4.28
2024-03-21T02:07:34.453Z,4.27
2024-03-21T02:08:36.834Z,4.25
2024-03-21T02:09:41.566Z,4.23
2024-03-21T02:10:43.523Z,4.22
2024-03-21T02:11:45.849Z,4.21
2024-03-21T02:12:48.046Z,4.21
2024-03-21T02:13:54.084Z,4.19
2024-03-21T02:14:56.795Z,4.19
2024-03-21T02:15:59.089Z,4.18
2024-03-21T02:17:01.214Z,4.16
2024-03-21T02:18:03.912Z,4.18
2024-03-21T02:19:06.194Z,4.18
2024-03-21T02:20:09.777Z,4.19
2024-03-21T02:21:12.304Z,4.20
2024-03-21T02:22:14.596Z,4.19
2024-03-21T02:23:16.723Z,4.18
2024-03-21T02:24:18.858Z,4.18
2024-03-21T02:25:22.954Z,4.18
2024-03-21T02:26:25.835Z,4.16
2024-03-21T02:27:27.979Z,4.15
2024-03-21T02:28:30.334Z,4.15
2024-03-21T02:29:32.501Z,4.15
2024-03-21T02:30:34.830Z,4.16
2024-03-21T02:31:36.854Z,4.17
2024-03-21T02:32:40.139Z,4.17
2024-03-21T02:33:42.368Z,4.18
2024-03-21T02:34:45.732Z,4.18
2024-03-21T02:35:48.028Z,4.18
2024-03-21T02:36:50.329Z,4.20
2024-03-21T02:37:52.688Z,4.20
2024-03-21T02:38:55.058Z,4.18
2024-03-21T02:39:57.458Z,4.16
2024-03-21T02:40:59.728Z,4.15
2024-03-21T02:42:01.945Z,4.12
2024-03-21T02:43:05.970Z,4.10
2024-03-21T02:44:08.147Z,4.07
2024-03-21T02:45:10.375Z,4.05
2024-03-21T02:46:12.716Z,4.03
2024-03-21T02:47:18.827Z,4.01
2024-03-21T02:48:21.140Z,3.99
2024-03-21T02:49:23.321Z,3.97
2024-03-21T02:50:25.707Z,3.95
2024-03-21T02:51:28.038Z,3.95
2024-03-21T02:52:30.391Z,3.93
2024-03-21T02:53:32.804Z,3.91
2024-03-21T02:54:35.414Z,3.90
2024-03-21T02:55:37.679Z,3.90
2024-03-21T02:56:39.907Z,3.89
2024-03-21T02:57:42.215Z,3.88
2024-03-21T02:58:44.424Z,3.87
2024-03-21T02:59:46.929Z,3.85
2024-03-21T03:00:49.289Z,3.85
2024-03-21T03:01:52.862Z,3.83
2024-03-21T03:02:55.355Z,3.83
2024-03-21T03:03:57.635Z,3.83
2024-03-21T03:04:59.933Z,3.84
2024-03-21T03:06:02.658Z,3.85
2024-03-21T03:07:05.109Z,3.84
2024-03-21T03:08:07.409Z,3.85
2024-03-21T03:09:09.571Z,3.86
2024-03-21T03:10:12.493Z,3.84
2024-03-21T03:11:14.707Z,3.83
2024-03-21T03:12:16.906Z,3.80
2024-03-21T03:13:19.349Z,3.80
2024-03-21T03:14:21.677Z,3.81
2024-03-21T03:15:24.015Z,3.79
2024-03-21T03:16:26.371Z,3.79
2024-03-21T03:17:28.793Z,3.78
2024-03-21T03:18:31.096Z,3.78
2024-03-21T03:19:33.263Z,3.77
2024-03-21T03:20:35.587Z,3.76
2024-03-21T03:21:37.669Z,3.74
2024-03-21T03:22:39.949Z,3.72
2024-03-21T03:23:42.260Z,3.71
2024-03-21T03:24:44.609Z,3.69
2024-03-21T03:25:46.795Z,3.68
2024-03-21T03:26:49.392Z,3.67
2024-03-21T03:27:51.485Z,3.67
2024-03-21T03:28:53.688Z,3.66
2024-03-21T03:29:55.978Z,3.63
2024-03-21T03:30:58.403Z,3.61
2024-03-21T03:32:00.810Z,3.58
2024-03-21T03:33:03.286Z,3.58
2024-03-21T03:34:05.624Z,3.58
2024-03-21T03:35:08.224Z,3.56
2024-03-21T03:36:10.780Z,3.55
2024-03-21T03:37:13.051Z,3.55
2024-03-21T03:38:15.204Z,3.54
2024-03-21T03:39:17.440Z,3.54
2024-03-21T03:40:19.859Z,3.54
2024-03-21T03:41:22.278Z,3.55
2024-03-21T03:42:24.554Z,3.56
2024-03-21T03:43:26.598Z,3.57
2024-03-21T03:44:28.968Z,3.57
2024-03-21T03:45:31.324Z,3.57
2024-03-21T03:46:33.626Z,3.57
2024-03-21T03:47:36.044Z,3.56
2024-03-21T03:48:40.279Z,3.55
2024-03-21T03:49:42.481Z,3.54
2024-03-21T03:50:45.030Z,3.54
2024-03-21T03:51:47.475Z,3.55
2024-03-21T03:52:49.661Z,3.54
2024-03-21T03:53:52.002Z,3.53
2024-03-21T03:54:54.209Z,3.53
2024-03-21T03:55:56.452Z,3.53
2024-03-21T03:56:58.820Z,3.53
2024-03-21T03:58:01.039Z,3.51
2024-03-21T03:59:03.363Z,3.49
2024-03-21T04:00:06.662Z,3.47
2024-03-21T04:01:14.603Z,3.44
2024-03-21T04:02:16.941Z,3.40
2024-03-21T04:03:19.092Z,3.37
2024-03-21T04:04:21.448Z,3.35
2024-03-21T04:05:23.648Z,3.34
2024-03-21T04:06:26.089Z,3.34
2024-03-21T04:07:28.246Z,3.35
2024-03-21T04:08:30.775Z,3.36
2024-03-21T04:09:33.073Z,3.37
2024-03-21T04:10:35.527Z,3.38
2024-03-21T04:11:37.823Z,3.39
2024-03-21T04:12:40.654Z,3.39
2024-03-21T04:13:43.290Z,3.40
2024-03-21T04:14:45.550Z,3.41
2024-03-21T04:15:53.651Z,3.42
2024-03-21T04:16:56.304Z,3.44
2024-03-21T04:17:58.466Z,3.42
2024-03-21T04:19:00.723Z,3.42
2024-03-21T04:20:03.685Z,3.44
2024-03-21T04:21:05.933Z,3.47
2024-03-21T04:22:08.191Z,3.49
2024-03-21T04:23:10.410Z,3.48
2024-03-21T04:24:12.701Z,3.48
2024-03-21T04:25:14.973Z,3.47
2024-03-21T04:26:17.240Z,3.46
2024-03-21T04:27:19.458Z,3.45
2024-03-21T04:28:21.684Z,3.46
2024-03-21T04:29:23.860Z,3.44
2024-03-21T04:30:26.188Z,3.41
2024-03-21T04:31:28.425Z,3.41
2024-03-21T04:32:30.918Z,3.40
2024-03-21T04:33:32.971Z,3.40
2024-03-21T04:34:35.283Z,3.39
2024-03-21T04:35:37.739Z,3.42
2024-03-21T04:36:42.316Z,3.39
2024-03-21T04:37:44.508Z,3.35
2024-03-21T04:38:47.250Z,3.33
2024-03-21T04:39:49.758Z,3.33
2024-03-21T04:40:52.187Z,3.33
2024-03-21T04:41:54.564Z,3.33
2024-03-21T04:42:58.086Z,3.32
2024-03-21T04:44:00.425Z,3.33
2024-03-21T04:45:02.715Z,3.33
2024-03-21T04:46:04.950Z,3.31
2024-03-21T04:47:07.194Z,3.31
2024-03-21T04:48:09.344Z,3.31
2024-03-21T04:49:11.634Z,3.31
2024-03-21T04:50:13.919Z,3.31
2024-03-21T04:51:16.415Z,3.33
2024-03-21T04:52:18.744Z,3.32
2024-03-21T04:53:21.067Z,3.34
2024-03-21T04:54:25.335Z,3.35
2024-03-21T04:55:29.373Z,3.34
2024-03-21T04:56:31.787Z,3.37
2024-03-21T04:57:34.024Z,3.38
2024-03-21T04:58:36.299Z,3.40
2024-03-21T04:59:38.610Z,3.42
2024-03-21T05:00:40.888Z,3.45
2024-03-21T05:01:43.109Z,3.47
2024-03-21T05:02:45.379Z,3.48
2024-03-21T05:03:47.692Z,3.50
2024-03-21T05:04:50.119Z,3.52
2024-03-21T05:05:52.237Z,3.53
2024-03-21T05:06:54.839Z,3.55
2024-03-21T05:07:57.120Z,3.56
2024-03-21T05:08:59.451Z,3.57
2024-03-21T05:10:02.257Z,3.59
2024-03-21T05:11:04.643Z,3.62
2024-03-21T05:12:07.230Z,3.66
2024-03-21T05:13:09.554Z,3.68
2024-03-21T05:14:11.702Z,3.71
2024-03-21T05:15:15.964Z,3.72
2024-03-21T05:16:18.557Z,3.73
2024-03-21T05:17:20.727Z,3.71
2024-03-21T05:18:23.083Z,3.72
2024-03-21T05:19:25.394Z,3.71
2024-03-21T05:20:27.872Z,3.74
2024-03-21T05:21:30.128Z,3.74
2024-03-21T05:22:32.329Z,3.72
2024-03-21T05:23:34.747Z,3.71
2024-03-21T05:24:37.185Z,3.69
2024-03-21T05:25:39.759Z,3.68
2024-03-21T05:26:42.369Z,3.66
2024-03-21T05:27:44.578Z,3.65
2024-03-21T05:28:46.921Z,3.67
2024-03-21T05:29:49.240Z,3.66
2024-03-21T05:30:54.738Z,3.66
2024-03-21T05:31:56.093Z,3.68
2024-03-21T05:32:58.294Z,3.68
2024-03-21T05:34:00.976Z,3.68
2024-03-21T05:35:03.477Z,3.69
2024-03-21T05:36:07.934Z,3.70
2024-03-21T05:37:10.247Z,3.73
2024-03-21T05:38:15.230Z,3.76
2024-03-21T05:39:16.655Z,3.80
2024-03-21T05:40:19.201Z,3.80
2024-03-21T05:41:21.514Z,3.78
2024-03-21T05:42:23.680Z,3.77
2024-03-21T05:43:25.952Z,3.76
2024-03-21T05:44:29.230Z,3.75
2024-03-21T05:45:31.546Z,3.75
2024-03-21T05:46:34.255Z,3.77
2024-03-21T05:47:37.340Z,3.78
2024-03-21T05:48:39.733Z,3.80
2024-03-21T05:49:42.081Z,3.83
2024-03-21T05:50:44.700Z,3.83
2024-03-21T05:51:46.916Z,3.85
2024-03-21T05:52:49.139Z,3.86
2024-03-21T05:53:51.580Z,3.87
2024-03-21T05:54:54.065Z,3.87
2024-03-21T05:56:03.758Z,3.88
2024-03-21T05:57:05.864Z,3.90
2024-03-21T05:58:08.498Z,3.93
2024-03-21T05:59:10.918Z,3.97
2024-03-21T06:00:14.605Z,4.01
2024-03-21T06:01:18.193Z,4.05
2024-03-21T06:02:20.755Z,4.10
2024-03-21T06:03:22.952Z,4.14
2024-03-21T06:04:25.524Z,4.15
2024-03-21T06:05:28.318Z,4.16
2024-03-21T06:06:30.665Z,4.20
2024-03-21T06:07:33.019Z,4.23
2024-03-21T06:08:35.556Z,4.27
2024-03-21T06:09:37.866Z,4.31
2024-03-21T06:10:40.400Z,4.33
2024-03-21T06:11:42.647Z,4.37
2024-03-21T06:12:45.052Z,4.42
2024-03-21T06:13:47.136Z,4.46
2024-03-21T06:14:49.328Z,4.50
2024-03-21T06:15:51.846Z,4.55
2024-03-21T06:16:54.410Z,4.61
2024-03-21T06:17:56.736Z,4.66
2024-03-21T06:18:58.927Z,4.70
2024-03-21T06:20:01.220Z,4.71
2024-03-21T06:21:03.895Z,4.71
2024-03-21T06:22:06.199Z,4.74
2024-03-21T06:23:09.069Z,4.75
2024-03-21T06:24:11.496Z,4.78
2024-03-21T06:25:13.971Z,4.79
2024-03-21T06:26:16.884Z,4.83
2024-03-21T06:27:19.171Z,4.85
2024-03-21T06:28:21.682Z,4.87
2024-03-21T06:29:24.243Z,4.91
2024-03-21T06:30:27.003Z,4.96
2024-03-21T06:31:30.669Z,5.01
2024-03-21T06:32:33.166Z,5.01
2024-03-21T06:33:36.178Z,5.01
2024-03-21T06:34:38.992Z,5.01
2024-03-21T06:35:41.100Z,5.01
2024-03-21T06:36:43.529Z,5.03
2024-03-21T06:37:45.929Z,5.02
2024-03-21T06:38:49.459Z,5.00
2024-03-21T06:39:51.704Z,4.98
2024-03-21T06:40:54.022Z,4.98
2024-03-21T06:41:56.481Z,4.96
2024-03-21T06:42:59.129Z,4.94
2024-03-21T06:44:01.611Z,4.98
2024-03-21T06:45:04.357Z,5.01
2024-03-21T06:46:06.859Z,5.01
2024-03-21T06:47:11.045Z,5.04
2024-03-21T06:48:13.365Z,5.05
2024-03-21T06:49:15.681Z,5.04
2024-03-21T06:50:18.919Z,5.06
2024-03-21T06:51:21.309Z,5.08
2024-03-21T06:52:24.287Z,5.14
2024-03-21T06:53:26.956Z,5.18
2024-03-21T06:54:29.406Z,5.21
2024-03-21T06:55:33.806Z,5.22
2024-03-21T06:56:36.418Z,5.28
2024-03-21T06:57:46.674Z,5.34
2024-03-21T06:58:49.232Z,5.36
2024-03-21T06:59:51.989Z,5.39
2024-03-21T07:00:54.698Z,5.42
2024-03-21T07:01:58.818Z,5.44
2024-03-21T07:03:01.148Z,5.46
2024-03-21T07:04:03.771Z,5.45
2024-03-21T07:05:08.431Z,5.48
2024-03-21T07:06:11.165Z,5.50
2024-03-21T07:07:13.656Z,5.53
2024-03-21T07:08:16.300Z,5.57
2024-03-21T07:09:18.514Z,5.58
2024-03-21T07:10:21.204Z,5.59
2024-03-21T07:11:23.532Z,5.59
2024-03-21T07:12:26.047Z,5.61
2024-03-21T07:13:28.273Z,5.67
2024-03-21T07:14:30.670Z,5.70
2024-03-21T07:15:32.918Z,5.71
2024-03-21T07:16:35.395Z,5.76
2024-03-21T07:17:37.613Z,5.78
2024-03-21T07:18:39.949Z,5.81
2024-03-21T07:19:42.323Z,5.83
2024-03-21T07:20:44.493Z,5.85
2024-03-21T07:21:46.872Z,5.86
2024-03-21T07:22:49.943Z,5.87
2024-03-21T07:23:52.366Z,5.88
2024-03-21T07:24:54.552Z,5.86
2024-03-21T07:25:59.036Z,5.89
2024-03-21T07:27:01.162Z,5.92
2024-03-21T07:28:04.191Z,5.93
2024-03-21T07:29:06.661Z,5.93
2024-03-21T07:30:10.438Z,5.95
2024-03-21T07:31:12.908Z,5.98
2024-03-21T07:32:15.253Z,6.03
2024-03-21T07:33:17.410Z,5.99
2024-03-21T07:34:19.670Z,6.04
2024-03-21T07:35:21.870Z,6.07
2024-03-21T07:36:24.338Z,6.15
2024-03-21T07:37:26.512Z,6.22
2024-03-21T07:38:28.992Z,6.30
2024-03-21T07:39:32.084Z,6.32
2024-03-21T07:40:34.763Z,6.36
2024-03-21T07:41:37.164Z,6.39
2024-03-21T07:42:39.432Z,6.40
2024-03-21T07:43:41.834Z,6.44
2024-03-21T07:44:44.056Z,6.47
2024-03-21T07:45:46.293Z,6.49
2024-03-21T07:46:50.148Z,6.51
2024-03-21T07:47:52.379Z,6.52
2024-03-21T07:48:54.683Z,6.54
2024-03-21T07:49:57.046Z,6.58
2024-03-21T07:50:59.575Z,6.61
2024-03-21T07:52:01.783Z,6.63
2024-03-21T07:53:04.395Z,6.66
2024-03-21T07:54:06.605Z,6.70
2024-03-21T07:55:09.335Z,6.75
2024-03-21T07:56:11.906Z,6.81
2024-03-21T07:57:14.100Z,6.87
2024-03-21T07:58:17.626Z,6.88
2024-03-21T07:59:19.874Z,6.89
2024-03-21T08:00:22.231Z,6.92
2024-03-21T08:01:26.917Z,6.96
2024-03-21T08:02:29.365Z,6.99
2024-03-21T08:03:31.564Z,7.02
2024-03-21T08:04:33.704Z,7.08
2024-03-21T08:05:37.850Z,7.15
2024-03-21T08:06:40.328Z,7.24
2024-03-21T08:07:42.626Z,7.30
2024-03-21T08:08:45.071Z,7.31
2024-03-21T08:09:47.352Z,7.31
2024-03-21T08:10:50.020Z,7.36
2024-03-21T08:11:53.532Z,7.39
2024-03-21T08:12:55.909Z,7.44
2024-03-21T08:13:58.311Z,7.50
2024-03-21T08:15:00.804Z,7.55
2024-03-21T08:16:03.374Z,7.58
2024-03-21T08:17:05.761Z,7.58
2024-03-21T08:18:08.238Z,7.58
2024-03-21T08:19:10.478Z,7.55
2024-03-21T08:20:13.151Z,7.57
2024-03-21T08:21:17.912Z,7.59
2024-03-21T08:22:19.732Z,7.59
2024-03-21T08:23:22.218Z,7.63
2024-03-21T08:24:24.526Z,7.67
2024-03-21T08:25:28.206Z,7.70
2024-03-21T08:26:30.518Z,7.77
2024-03-21T08:27:32.982Z,7.82
2024-03-21T08:28:37.330Z,7.87
2024-03-21T08:29:39.489Z,7.90
2024-03-21T08:30:41.921Z,7.92
2024-03-21T08:31:44.308Z,7.95
2024-03-21T08:33:06.464Z,7.95
2024-03-21T08:34:08.731Z,7.97
2024-03-21T08:35:11.060Z,8.02
2024-03-21T08:36:14.852Z,8.04
2024-03-21T08:37:17.307Z,8.07
2024-03-21T08:38:19.968Z,8.09
2024-03-21T08:39:22.187Z,8.10
2024-03-21T08:40:24.637Z,8.13
2024-03-21T08:41:26.943Z,8.16
2024-03-21T08:42:29.931Z,8.15
2024-03-21T08:43:32.208Z,8.21
2024-03-21T08:44:34.684Z,8.26
2024-03-21T08:45:36.896Z,8.31
2024-03-21T08:46:39.342Z,8.36
2024-03-21T08:47:41.911Z,8.40
2024-03-21T08:48:44.138Z,8.40
2024-03-21T08:49:47.368Z,8.39
2024-03-21T08:50:49.898Z,8.40
2024-03-21T08:51:52.253Z,8.37
2024-03-21T08:52:54.680Z,8.39
2024-03-21T08:53:56.875Z,8.39
2024-03-21T08:54:59.211Z,8.42
2024-03-21T08:56:01.358Z,8.45
2024-03-21T08:57:03.837Z,8.51
2024-03-21T08:58:06.092Z,8.55
2024-03-21T08:59:08.829Z,8.55
2024-03-21T09:00:12.521Z,8.54
2024-03-21T09:01:15.771Z,8.57
2024-03-21T09:02:18.693Z,8.61
2024-03-21T09:03:23.038Z,8.67
2024-03-21T09:04:25.192Z,8.70
2024-03-21T09:05:27.841Z,8.72
2024-03-21T09:06:31.773Z,8.74
2024-03-21T09:07:34.116Z,8.77
2024-03-21T09:08:36.440Z,8.82
2024-03-21T09:09:38.922Z,8.88
2024-03-21T09:10:41.307Z,8.95
2024-03-21T09:11:43.979Z,8.99
2024-03-21T09:12:46.622Z,9.02
2024-03-21T09:13:49.141Z,9.06
2024-03-21T09:14:51.366Z,9.12
2024-03-21T09:15:53.708Z,9.16
2024-03-21T09:16:56.195Z,9.19
2024-03-21T09:17:58.393Z,9.21
2024-03-21T09:19:00.718Z,9.22
2024-03-21T09:20:03.382Z,9.28
2024-03-21T09:21:05.650Z,9.31
2024-03-21T09:22:08.060Z,9.35
2024-03-21T09:23:10.477Z,9.36
2024-03-21T09:24:12.922Z,9.37
2024-03-21T09:25:16.657Z,9.43
2024-03-21T09:26:19.281Z,9.45
2024-03-21T09:27:25.814Z,9.47
2024-03-21T09:28:27.539Z,9.51
2024-03-21T09:29:29.937Z,9.52
2024-03-21T09:30:32.496Z,9.56
2024-03-21T09:31:35.087Z,9.56
2024-03-21T09:32:37.417Z,9.58
2024-03-21T09:33:39.742Z,9.59
2024-03-21T09:34:42.490Z,9.60
2024-03-21T09:35:45.105Z,9.61
2024-03-21T09:36:47.650Z,9.60
2024-03-21T09:37:49.833Z,9.60
2024-03-21T09:38:52.389Z,9.56
2024-03-21T09:39:54.750Z,9.57
2024-03-21T09:40:59.157Z,9.61
2024-03-21T09:42:02.535Z,9.68
2024-03-21T09:43:05.261Z,9.74
2024-03-21T09:44:11.385Z,9.82
2024-03-21T09:45:14.033Z,9.90
2024-03-21T09:46:19.723Z,9.97
2024-03-21T09:47:24.367Z,10.07
2024-03-21T09:48:27.006Z,10.15
2024-03-21T09:49:32.338Z,10.25
2024-03-21T09:50:35.107Z,10.26
2024-03-21T09:51:39.353Z,10.30
2024-03-21T09:52:41.828Z,10.37
2024-03-21T09:53:44.115Z,10.45
2024-03-21T09:54:46.563Z,10.46
2024-03-21T09:55:48.987Z,10.46
2024-03-21T09:56:53.962Z,10.41
2024-03-21T09:57:56.424Z,10.42
2024-03-21T09:59:00.676Z,10.44
2024-03-21T10:00:03.571Z,10.50
2024-03-21T10:01:22.682Z,10.51
2024-03-21T10:02:25.098Z,10.53
2024-03-21T10:03:27.295Z,10.55
2024-03-21T10:04:29.938Z,10.55
2024-03-21T10:05:32.428Z,10.57
2024-03-21T10:06:48.200Z,10.57
2024-03-21T10:07:50.569Z,10.56
2024-03-21T10:08:53.330Z,10.59
2024-03-21T10:09:56.947Z,10.59
2024-03-21T10:11:01.330Z,10.62
2024-03-21T10:12:03.998Z,10.64
2024-03-21T10:13:08.219Z,10.66
2024-03-21T10:14:13.059Z,10.64
2024-03-21T10:15:15.360Z,10.67
2024-03-21T10:16:18.616Z,10.75
2024-03-21T10:17:21.021Z,10.81
2024-03-21T10:18:23.300Z,10.86
2024-03-21T10:19:25.576Z,10.93
2024-03-21T10:20:28.013Z,10.95
2024-03-21T10:21:30.301Z,10.97
2024-03-21T10:22:32.492Z,11.01
2024-03-21T10:23:35.641Z,11.07
2024-03-21T10:24:38.637Z,11.14
2024-03-21T10:25:40.828Z,11.17
2024-03-21T10:26:43.428Z,11.19
2024-03-21T10:27:48.834Z,11.17
2024-03-21T10:28:51.470Z,11.16
2024-03-21T10:29:55.523Z,11.14
2024-03-21T10:30:58.261Z,11.14
2024-03-21T10:32:00.595Z,11.19
2024-03-21T10:33:03.506Z,11.25
2024-03-21T10:34:06.913Z,11.23
2024-03-21T10:35:19.171Z,11.25
2024-03-21T10:36:18.719Z,11.29
2024-03-21T10:37:23.120Z,11.29
2024-03-21T10:38:26.819Z,11.33
2024-03-21T10:39:29.162Z,11.39
2024-03-21T10:40:33.440Z,11.44
2024-03-21T10:41:36.815Z,11.43
2024-03-21T10:42:41.976Z,11.41
2024-03-21T10:43:46.675Z,11.43
2024-03-21T10:44:50.267Z,11.44
2024-03-21T10:45:52.897Z,11.50
2024-03-21T10:46:58.265Z,11.51
2024-03-21T10:48:00.526Z,11.52
2024-03-21T10:49:03.073Z,11.48
2024-03-21T10:50:09.858Z,11.46
2024-03-21T10:51:17.844Z,11.46
2024-03-21T10:52:20.656Z,11.49
2024-03-21T10:53:23.762Z,11.50
2024-03-21T10:54:26.246Z,11.54
2024-03-21T10:55:28.568Z,11.60
2024-03-21T10:56:38.238Z,11.65
2024-03-21T10:57:40.490Z,11.70
2024-03-21T10:58:43.377Z,11.76
2024-03-21T10:59:58.752Z,11.85
2024-03-21T11:01:03.441Z,11.96
2024-03-21T11:02:05.913Z,12.07
2024-03-21T11:03:11.717Z,12.14
2024-03-21T11:04:14.458Z,12.22
2024-03-21T11:05:18.533Z,12.25
2024-03-21T11:06:26.493Z,12.22
2024-03-21T11:07:31.308Z,12.19
2024-03-21T11:08:33.650Z,12.15
2024-03-21T11:09:36.011Z,12.16
2024-03-21T11:10:39.103Z,12.13
2024-03-21T11:11:42.094Z,12.13
2024-03-21T11:12:46.956Z,12.12
2024-03-21T11:14:02.266Z,12.09
2024-03-21T11:15:05.840Z,12.13
2024-03-21T11:16:08.733Z,12.24
2024-03-21T11:17:13.528Z,12.33
2024-03-21T11:18:15.897Z,12.40
2024-03-21T11:19:20.035Z,12.42
2024-03-21T11:20:22.636Z,12.47
2024-03-21T11:21:25.454Z,12.53
2024-03-21T11:22:27.836Z,12.61
2024-03-21T11:23:30.609Z,12.71
2024-03-21T11:24:33.106Z,12.79
2024-03-21T11:25:35.936Z,12.83
2024-03-21T11:26:38.661Z,12.80
2024-03-21T11:27:42.229Z,12.81
2024-03-21T11:28:45.877Z,12.83
2024-03-21T11:29:48.223Z,12.81
2024-03-21T11:30:50.681Z,12.79
2024-03-21T11:31:52.911Z,12.79
2024-03-21T11:32:55.261Z,12.75
2024-03-21T11:33:57.476Z,12.70
2024-03-21T11:34:59.868Z,12.68
2024-03-21T11:36:02.209Z,12.68
2024-03-21T11:37:04.949Z,12.69
2024-03-21T11:38:11.290Z,12.66
2024-03-21T11:39:14.840Z,12.63
2024-03-21T11:40:21.580Z,12.60
2024-03-21T11:41:24.368Z,12.57
2024-03-21T11:42:26.907Z,12.50
2024-03-21T11:43:29.818Z,12.48
2024-03-21T11:44:32.168Z,12.44
2024-03-21T11:45:37.786Z,12.42
2024-03-21T11:46:43.616Z,12.40
2024-03-21T11:47:46.188Z,12.38
2024-03-21T11:49:11.865Z,12.37
2024-03-21T11:50:16.242Z,12.35
2024-03-21T11:51:18.663Z,12.28
2024-03-21T11:52:21.143Z,12.16
2024-03-21T11:53:23.610Z,12.09
2024-03-21T11:54:27.191Z,12.11
2024-03-21T11:55:31.333Z,12.15
2024-03-21T11:56:35.092Z,12.18
2024-03-21T11:57:37.532Z,12.23
2024-03-21T11:58:39.872Z,12.24
2024-03-21T11:59:46.450Z,12.30
2024-03-21T12:00:49.375Z,12.32
2024-03-21T12:01:51.895Z,12.39
2024-03-21T12:02:54.255Z,12.36
2024-03-21T12:03:56.625Z,12.35
2024-03-21T12:04:58.893Z,12.31
2024-03-21T12:06:01.203Z,12.27
2024-03-21T12:07:03.550Z,12.25
2024-03-21T12:08:06.336Z,12.23
2024-03-21T12:09:08.784Z,12.24
2024-03-21T12:10:12.785Z,12.20
2024-03-21T12:11:16.702Z,12.20
2024-03-21T12:12:19.035Z,12.16
2024-03-21T12:13:21.416Z,12.10
2024-03-21T12:14:23.812Z,12.01
2024-03-21T12:15:26.610Z,11.94
2024-03-21T12:16:29.252Z,11.89
2024-03-21T12:17:32.599Z,11.84
2024-03-21T12:18:35.137Z,11.77
2024-03-21T12:19:38.227Z,11.73
2024-03-21T12:20:40.779Z,11.70
2024-03-21T12:21:43.076Z,11.70
2024-03-21T12:22:46.706Z,11.75
2024-03-21T12:23:49.664Z,11.81
2024-03-21T12:24:52.394Z,11.85
2024-03-21T12:25:54.781Z,11.90
2024-03-21T12:26:57.190Z,11.96
2024-03-21T12:27:59.517Z,12.02
2024-03-21T12:29:01.706Z,12.08
2024-03-21T12:30:05.080Z,12.13
2024-03-21T12:31:16.847Z,12.23
2024-03-21T12:32:19.313Z,12.32
2024-03-21T12:33:21.679Z,12.42
2024-03-21T12:34:25.025Z,12.50
2024-03-21T12:35:27.589Z,12.54
2024-03-21T12:36:31.231Z,12.62
2024-03-21T12:37:34.818Z,12.66
2024-03-21T12:38:37.595Z,12.73
2024-03-21T12:39:39.880Z,12.77
2024-03-21T12:40:44.210Z,12.82
2024-03-21T12:41:46.717Z,12.87
2024-03-21T12:42:49.235Z,12.90
2024-03-21T12:43:51.527Z,12.91
2024-03-21T12:44:53.745Z,12.94
2024-03-21T12:45:56.173Z,12.93
2024-03-21T12:46:58.804Z,12.97
2024-03-21T12:48:01.595Z,13.03
2024-03-21T12:49:03.970Z,12.96
2024-03-21T12:50:07.572Z,12.90
2024-03-21T12:51:11.107Z,12.89
2024-03-21T12:52:13.910Z,12.88
2024-03-21T12:53:18.735Z,12.88
2024-03-21T12:54:21.189Z,12.89
2024-03-21T12:55:25.376Z,12.87
2024-03-21T12:56:27.733Z,12.83
2024-03-21T12:57:30.089Z,12.80
2024-03-21T12:58:32.272Z,12.76
2024-03-21T12:59:35.683Z,12.72
2024-03-21T13:00:38.281Z,12.64
2024-03-21T13:01:40.944Z,12.62
2024-03-21T13:02:43.399Z,12.60
2024-03-21T13:03:45.988Z,12.60
2024-03-21T13:04:49.864Z,12.65
2024-03-21T13:05:52.241Z,12.66
2024-03-21T13:06:54.624Z,12.66
2024-03-21T13:07:57.003Z,12.68
2024-03-21T13:08:59.075Z,12.72
2024-03-21T13:10:01.662Z,12.70
2024-03-21T13:11:04.313Z,12.80
2024-03-21T13:12:06.962Z,12.91
2024-03-21T13:13:09.261Z,13.04
2024-03-21T13:14:11.618Z,13.17
2024-03-21T13:15:14.115Z,13.27
2024-03-21T13:16:16.912Z,13.33
2024-03-21T13:17:23.142Z,13.42
2024-03-21T13:18:25.635Z,13.46
2024-03-21T13:19:28.213Z,13.45
2024-03-21T13:20:30.595Z,13.46
2024-03-21T13:21:35.158Z,13.49
2024-03-21T13:22:39.444Z,13.51
2024-03-21T13:23:41.907Z,13.61
2024-03-21T13:24:44.378Z,13.68
2024-03-21T13:25:46.490Z,13.75
2024-03-21T13:26:49.246Z,13.80
2024-03-21T13:27:51.634Z,13.91
2024-03-21T13:28:54.080Z,14.00
2024-03-21T13:29:56.459Z,14.07
2024-03-21T13:30:59.010Z,14.14
2024-03-21T13:32:01.348Z,14.15
2024-03-21T13:33:03.999Z,14.18
2024-03-21T13:34:08.617Z,14.26
2024-03-21T13:35:11.227Z,14.28
2024-03-21T13:36:13.937Z,14.28
2024-03-21T13:37:16.235Z,14.18
2024-03-21T13:38:18.850Z,14.09
2024-03-21T13:39:21.250Z,14.02
2024-03-21T13:40:23.606Z,13.91
2024-03-21T13:41:27.047Z,13.80
2024-03-21T13:42:29.179Z,13.72
2024-03-21T13:43:31.502Z,13.59
2024-03-21T13:44:33.779Z,13.48
2024-03-21T13:45:37.828Z,13.41
2024-03-21T13:46:40.692Z,13.44
2024-03-21T13:47:43.247Z,13.48
2024-03-21T13:48:46.011Z,13.59
2024-03-21T13:49:48.271Z,13.73